Página principal
METAR-TAF:

METAR-TAF

Aeroportos :

Curaçao, Antilhas Neerlandesas

Aeroporto Internacional Hato

latitude: 12-12N, longitude: 068-58W, altura: 9 m

Observação actual do tempo

O boletim foi feito há 28 minutos, às 14:00 UTC
Vento 9 kt de este
Temperatura 30°C
Humidade 70%
Pressão 1012 hPa
Visibilidade 10 km ou mais
Poucas nuvensa uma altura de 1300 ft, Cumulonimbus.
Nuvens dispersasa uma altura de 1700 ft, Cumulus congestus.
aguaceiros fracos de chuva

METAR: TNCC 181400Z 09009KT 9999 -SHRA FEW013CB SCT017TCU 30/24 Q1012 NOSIG

Hora: 10:28 (14:28 UTC)

Previsão

O boletim foi feito há 4 horas e 28 minutos, às 10:00 UTC
Previsão válida de 18 às 12 UTC a 19 às 12 UTC
Vento 12 kt de este
Visibilidade 10 km ou mais
Nuvens dispersasa uma altura de 2000 ft
Probabilidade 30% :
Temporariamente
de 18 às 12 UTC a 18 às 16 UTC
Visibilidade: 7000 m
Nuvens fragmentadasa uma altura de 1500 ft
aguaceiros de chuva

TAF: TNCC 181000Z 1812/1912 10012KT 9999 SCT020 PROB30 TEMPO 1812/1816 7000 SHRA BKN015

Observações e previsões do tempo de mais de 4000 aeroportos (mensagens METAR e TAF).

As estações disponíveis são os pontos amarelos e vermelhos sobre o mapa.

Mova o rato sobre o mapa para ver o nome da estação.

Depois clique no ponto para visualizar as observações e previsões meteorológicas.

Para alterar o mapa : clique nos botões verdes com uma cruz preta para aumentar o zoom; no botão verde com uma pitada de zoom; ou nas setas verdes para mapas adjacentes.


METAR-TAF: